Time;durP1;ratioP1;P1;durP2;ratioP2;P2;SDS_P1;SDS_P2;PMS_P1;PMS_P2;Temp;Humidity;BMP_temperature;BMP_pressure;BME280_temperature;BME280_humidity;BME280_pressure;Samples;Min_cycle;Max_cycle;Signal;HPM_P1;HPM_P2
2022/05/21 00:01:44;;;;;;;3.42;2.60;;;6.20;99.90;;;;;;4934586;29;20103;-81
2022/05/21 00:04:11;;;;;;;3.63;2.90;;;6.20;99.90;;;;;;4923936;29;20052;-80
2022/05/21 00:06:40;;;;;;;2.88;2.60;;;6.20;99.90;;;;;;4915654;29;20051;-81
2022/05/21 00:09:12;;;;;;;3.38;2.55;;;6.20;99.90;;;;;;4923695;29;20527;-81
2022/05/21 00:11:41;;;;;;;2.20;2.00;;;6.20;99.90;;;;;;4935148;29;20062;-80
2022/05/21 00:14:10;;;;;;;4.30;2.35;;;6.20;99.90;;;;;;4926728;29;20056;-80
2022/05/21 00:16:39;;;;;;;2.67;2.47;;;6.20;99.90;;;;;;4917380;29;20052;-82
2022/05/21 00:19:06;;;;;;;6.20;2.22;;;6.20;99.90;;;;;;4915066;29;20134;-79
2022/05/21 00:21:34;;;;;;;3.63;2.60;;;6.20;99.90;;;;;;4923051;29;20051;-81
2022/05/21 00:24:01;;;;;;;2.72;2.20;;;6.10;99.90;;;;;;4935465;29;20051;-81
2022/05/21 00:26:28;;;;;;;3.25;2.25;;;6.10;99.90;;;;;;4928092;29;20421;-81
2022/05/21 00:28:59;;;;;;;3.63;2.08;;;6.10;99.90;;;;;;4916455;29;20520;-81
2022/05/21 00:31:27;;;;;;;2.63;2.40;;;6.10;99.90;;;;;;4926752;29;20402;-81
2022/05/21 00:33:54;;;;;;;3.03;2.30;;;6.10;99.90;;;;;;4916508;29;20052;-81
2022/05/21 00:36:21;;;;;;;2.50;1.90;;;6.10;99.90;;;;;;4921117;29;20087;-81
2022/05/21 00:38:48;;;;;;;14.38;2.25;;;6.10;99.90;;;;;;4933415;29;20047;-81
2022/05/21 00:41:18;;;;;;;2.22;2.00;;;6.10;99.90;;;;;;4928130;29;20142;-81
2022/05/21 00:43:48;;;;;;;2.13;1.90;;;6.10;99.90;;;;;;4914834;29;20060;-81
2022/05/21 00:46:20;;;;;;;2.47;1.63;;;6.00;99.90;;;;;;4916435;29;20086;-81
2022/05/21 00:48:54;;;;;;;3.60;1.80;;;6.10;99.90;;;;;;4924860;29;20056;-81
2022/05/21 00:51:24;;;;;;;3.08;1.60;;;6.10;99.90;;;;;;4935638;29;20067;-82
2022/05/21 00:53:55;;;;;;;2.03;1.60;;;6.10;99.90;;;;;;4934602;29;20535;-83
2022/05/21 00:56:25;;;;;;;2.67;1.65;;;6.10;99.90;;;;;;4921014;29;20091;-82
2022/05/21 01:01:46;;;;;;;2.90;1.65;;;6.00;99.90;;;;;;4923060;29;20056;-83
2022/05/21 01:04:13;;;;;;;2.65;2.10;;;6.00;99.90;;;;;;4935752;29;20054;-83
2022/05/21 01:06:41;;;;;;;3.50;2.42;;;6.00;99.90;;;;;;4907795;29;20063;-82
2022/05/21 01:09:10;;;;;;;2.70;2.33;;;6.00;99.90;;;;;;4935039;29;20052;-81
2022/05/21 01:11:39;;;;;;;5.65;2.20;;;5.90;99.90;;;;;;4932057;29;20071;-82
2022/05/21 01:14:09;;;;;;;4.18;1.95;;;5.90;99.90;;;;;;4923910;29;20055;-82
2022/05/21 01:16:37;;;;;;;4.85;2.42;;;5.90;99.90;;;;;;4927100;29;20059;-82
2022/05/21 01:19:08;;;;;;;4.03;3.42;;;5.90;99.90;;;;;;4914170;29;20462;-81
2022/05/21 01:21:36;;;;;;;2.55;2.35;;;5.90;99.90;;;;;;4915662;29;20076;-81
2022/05/21 01:24:07;;;;;;;4.43;2.40;;;5.90;99.90;;;;;;4916599;29;20095;-82
2022/05/21 01:26:36;;;;;;;3.90;2.47;;;5.90;99.90;;;;;;4933718;29;20059;-83
2022/05/21 01:29:06;;;;;;;3.92;2.47;;;5.90;99.90;;;;;;4913523;29;20564;-83
2022/05/21 01:31:34;;;;;;;2.65;2.28;;;5.90;99.90;;;;;;4899728;29;20528;-82
2022/05/21 01:34:02;;;;;;;3.50;2.38;;;5.90;99.90;;;;;;4924191;29;20142;-81
2022/05/21 01:36:30;;;;;;;2.38;2.17;;;5.90;99.90;;;;;;4933217;29;20106;-82
2022/05/21 01:38:59;;;;;;;3.75;2.20;;;5.90;99.90;;;;;;4930825;29;20538;-81
2022/05/21 01:41:27;;;;;;;2.38;2.17;;;5.90;99.90;;;;;;4932152;29;20079;-81
2022/05/21 01:46:39;;;;;;;2.72;2.03;;;5.90;99.90;;;;;;4932179;29;20090;-83
2022/05/21 01:49:06;;;;;;;3.03;2.13;;;5.90;99.90;;;;;;4918184;29;20055;-80
2022/05/21 01:51:33;;;;;;;1.80;1.67;;;5.90;99.90;;;;;;4933131;29;20058;-83
2022/05/21 01:54:00;;;;;;;2.50;2.30;;;5.90;99.90;;;;;;4921229;29;20048;-83
2022/05/21 01:56:29;;;;;;;2.65;2.10;;;5.90;99.90;;;;;;4913922;29;20036;-83
2022/05/21 01:58:56;;;;;;;3.22;1.92;;;5.90;99.90;;;;;;4914968;29;20054;-83
2022/05/21 02:01:25;;;;;;;5.68;2.10;;;5.90;99.90;;;;;;4923962;29;20109;-83
2022/05/21 02:03:52;;;;;;;2.97;2.33;;;5.90;99.90;;;;;;4933681;29;20138;-81
2022/05/21 02:06:20;;;;;;;5.68;2.03;;;5.90;99.90;;;;;;4934052;29;20047;-81
2022/05/21 02:08:50;;;;;;;2.20;2.00;;;5.90;99.90;;;;;;4933479;29;20051;-81
2022/05/21 02:11:20;;;;;;;2.85;1.80;;;6.00;99.90;;;;;;4921567;29;20060;-82
2022/05/21 02:13:49;;;;;;;2.60;2.00;;;6.00;99.90;;;;;;4901197;29;20051;-82
2022/05/21 02:16:16;;;;;;;3.55;1.98;;;6.00;99.90;;;;;;4930442;29;20055;-80
2022/05/21 02:18:44;;;;;;;4.28;2.20;;;6.00;99.90;;;;;;4922733;29;20047;-81
2022/05/21 02:21:11;;;;;;;2.85;2.58;;;6.00;99.90;;;;;;4922446;29;20056;-80
2022/05/21 02:23:38;;;;;;;2.08;1.88;;;6.00;99.90;;;;;;4919202;29;20107;-80
2022/05/21 02:26:06;;;;;;;2.90;1.52;;;6.10;99.90;;;;;;4911129;29;20047;-80
2022/05/21 02:28:34;;;;;;;3.10;1.67;;;6.10;99.90;;;;;;4922237;29;20138;-81
2022/05/21 02:31:02;;;;;;;6.30;1.90;;;6.10;99.90;;;;;;4916436;29;20100;-81
2022/05/21 02:33:30;;;;;;;2.35;2.03;;;6.20;99.90;;;;;;4925467;29;20040;-81
2022/05/21 02:35:57;;;;;;;3.63;2.10;;;6.20;99.90;;;;;;4914206;29;20056;-81
2022/05/21 02:41:14;;;;;;;3.05;1.80;;;6.20;99.90;;;;;;4913305;29;20052;-81
2022/05/21 02:43:43;;;;;;;4.38;1.85;;;6.30;99.90;;;;;;4915751;29;20070;-80
2022/05/21 02:46:11;;;;;;;2.40;1.75;;;6.30;99.90;;;;;;4928514;29;20457;-80
2022/05/21 02:48:39;;;;;;;3.13;2.00;;;6.30;99.90;;;;;;4936069;29;20447;-81
2022/05/21 02:51:08;;;;;;;6.57;1.85;;;6.30;99.90;;;;;;4918259;29;20048;-82
2022/05/21 02:53:35;;;;;;;3.67;2.65;;;6.40;99.90;;;;;;4937075;29;20071;-82
2022/05/21 02:56:05;;;;;;;3.40;1.75;;;6.40;99.90;;;;;;4924920;29;20048;-81
2022/05/21 02:58:32;;;;;;;3.13;1.70;;;6.40;99.90;;;;;;4932006;29;20047;-81
2022/05/21 03:00:59;;;;;;;1.95;1.75;;;6.40;99.90;;;;;;4933189;29;20060;-81
2022/05/21 03:03:28;;;;;;;3.75;1.70;;;6.50;99.90;;;;;;4918383;29;20135;-84
2022/05/21 03:05:55;;;;;;;4.53;1.60;;;6.50;99.90;;;;;;4941642;29;20075;-83
2022/05/21 03:11:07;;;;;;;2.40;1.90;;;6.60;99.90;;;;;;4918577;29;20052;-83
2022/05/21 03:13:35;;;;;;;5.18;1.80;;;6.60;99.90;;;;;;4926820;29;20150;-82
2022/05/21 03:16:02;;;;;;;2.03;1.60;;;6.60;99.90;;;;;;4911964;29;20052;-81
2022/05/21 03:18:31;;;;;;;5.47;1.58;;;6.60;99.90;;;;;;4918563;29;20146;-82
2022/05/21 03:20:58;;;;;;;2.72;1.65;;;6.70;99.90;;;;;;4928917;29;20058;-81
2022/05/21 03:23:27;;;;;;;3.72;1.60;;;6.70;99.90;;;;;;4917021;29;20484;-82
2022/05/21 03:25:55;;;;;;;6.90;2.08;;;6.70;99.90;;;;;;4925074;29;20099;-82
2022/05/21 03:28:22;;;;;;;5.35;1.65;;;6.80;99.90;;;;;;4921427;29;20062;-81
2022/05/21 03:30:52;;;;;;;4.38;2.10;;;6.80;99.90;;;;;;4933453;29;20468;-80
2022/05/21 03:33:19;;;;;;;3.03;1.83;;;6.80;99.90;;;;;;4913258;29;20056;-80
2022/05/21 03:35:48;;;;;;;4.13;1.70;;;6.80;99.90;;;;;;4936266;29;20051;-80
2022/05/21 03:38:18;;;;;;;2.15;1.52;;;6.90;99.90;;;;;;4921031;29;20052;-81
2022/05/21 03:40:47;;;;;;;1.85;1.27;;;6.90;99.90;;;;;;4920603;29;20071;-81
2022/05/21 03:43:15;;;;;;;3.65;1.70;;;6.90;99.90;;;;;;4932499;29;20512;-80
2022/05/21 03:45:42;;;;;;;3.03;1.60;;;7.00;99.90;;;;;;4923716;29;20084;-80
2022/05/21 03:48:10;;;;;;;3.88;1.85;;;7.00;99.90;;;;;;4922210;29;20055;-80
2022/05/21 03:50:39;;;;;;;2.60;1.60;;;7.10;99.90;;;;;;4936151;29;20080;-80
2022/05/21 03:53:09;;;;;;;9.15;2.45;;;7.10;99.90;;;;;;4919526;29;20043;-83
2022/05/21 03:55:37;;;;;;;1.45;1.35;;;7.20;99.90;;;;;;4935167;29;20134;-81
2022/05/21 03:58:04;;;;;;;6.30;1.60;;;7.30;99.90;;;;;;4900944;29;20062;-82
2022/05/21 04:00:32;;;;;;;5.03;1.92;;;7.30;99.90;;;;;;4917161;29;20052;-82
2022/05/21 04:03:01;;;;;;;2.47;1.70;;;7.40;99.90;;;;;;4943569;29;20052;-81
2022/05/21 04:05:28;;;;;;;4.68;1.67;;;7.50;99.90;;;;;;4936656;29;20055;-81
2022/05/21 04:07:55;;;;;;;3.20;1.55;;;7.60;99.90;;;;;;4937390;29;20047;-80
2022/05/21 04:10:27;;;;;;;4.05;1.88;;;7.70;99.90;;;;;;4936295;28;20054;-82
2022/05/21 04:12:55;;;;;;;3.33;1.67;;;7.80;99.90;;;;;;4911142;29;20537;-82
2022/05/21 04:15:22;;;;;;;3.50;1.38;;;7.90;99.90;;;;;;4917816;29;20074;-82
2022/05/21 04:17:51;;;;;;;4.30;1.55;;;8.00;99.90;;;;;;4939080;29;20071;-82
2022/05/21 04:20:20;;;;;;;2.60;1.20;;;8.10;99.90;;;;;;4920858;29;20224;-82
2022/05/21 04:22:47;;;;;;;4.82;1.70;;;8.20;99.90;;;;;;4947265;29;20055;-82
2022/05/21 04:25:20;;;;;;;2.50;1.70;;;8.30;99.90;;;;;;4951117;28;20436;-83
2022/05/21 04:27:48;;;;;;;2.55;1.90;;;8.40;99.90;;;;;;4950832;29;20050;-82
2022/05/21 04:30:21;;;;;;;3.00;1.77;;;8.40;99.90;;;;;;4913551;29;20523;-82
2022/05/21 04:32:51;;;;;;;1.75;1.40;;;8.50;99.90;;;;;;4931339;29;20525;-82
2022/05/21 04:35:20;;;;;;;3.92;1.65;;;8.50;99.90;;;;;;4921705;29;20455;-82
2022/05/21 04:37:47;;;;;;;1.75;1.55;;;8.50;99.90;;;;;;4931603;29;20134;-82
2022/05/21 04:40:19;;;;;;;4.53;2.08;;;8.60;99.90;;;;;;4935935;29;20060;-83
2022/05/21 04:42:46;;;;;;;5.07;2.15;;;8.60;99.90;;;;;;4936528;29;20087;-82
2022/05/21 04:45:16;;;;;;;4.82;2.17;;;8.70;99.90;;;;;;4936242;29;20150;-82
2022/05/21 04:47:43;;;;;;;8.68;2.83;;;8.80;99.90;;;;;;4938224;29;20102;-81
2022/05/21 04:50:12;;;;;;;3.67;2.42;;;8.80;99.90;;;;;;4923891;29;20060;-83
2022/05/21 04:52:39;;;;;;;4.35;2.13;;;8.90;99.90;;;;;;4927515;29;20068;-81
2022/05/21 04:55:09;;;;;;;6.72;1.95;;;8.90;99.90;;;;;;4957332;28;20062;-83
2022/05/21 04:57:38;;;;;;;7.35;2.10;;;9.00;99.90;;;;;;4937201;29;20059;-81
2022/05/21 05:00:09;;;;;;;1.77;1.58;;;9.00;99.90;;;;;;4934817;29;20164;-82
2022/05/21 05:02:39;;;;;;;4.35;1.90;;;9.00;99.90;;;;;;4932698;29;20054;-81
2022/05/21 05:05:09;;;;;;;8.82;2.00;;;9.10;99.90;;;;;;4944878;28;20048;-82
2022/05/21 05:07:40;;;;;;;3.38;1.75;;;9.10;99.90;;;;;;4944920;29;20103;-82
2022/05/21 05:10:09;;;;;;;9.02;3.55;;;9.20;99.90;;;;;;4944928;29;20079;-83
2022/05/21 05:12:39;;;;;;;3.63;1.92;;;9.30;99.90;;;;;;4954781;29;20043;-83
2022/05/21 05:15:07;;;;;;;3.40;1.65;;;9.40;99.90;;;;;;4946414;28;20051;-81
2022/05/21 05:17:34;;;;;;;3.97;2.20;;;9.50;99.90;;;;;;4935173;28;20048;-80
2022/05/21 05:20:04;;;;;;;4.75;2.15;;;9.70;99.90;;;;;;4930627;29;20052;-80
2022/05/21 05:22:31;;;;;;;3.65;1.50;;;9.90;99.90;;;;;;4916169;29;20060;-82
2022/05/21 05:25:02;;;;;;;2.65;1.75;;;10.10;99.90;;;;;;4916057;29;20044;-82
2022/05/21 05:27:30;;;;;;;4.15;1.98;;;10.30;99.90;;;;;;4932337;29;20071;-80
2022/05/21 05:29:57;;;;;;;5.82;2.10;;;10.60;99.90;;;;;;4944248;28;20050;-83
2022/05/21 05:32:24;;;;;;;2.35;1.55;;;11.10;99.90;;;;;;4947111;28;20134;-82
2022/05/21 05:34:52;;;;;;;2.92;2.22;;;11.60;99.90;;;;;;4933825;29;20430;-85
2022/05/21 05:37:21;;;;;;;2.92;1.90;;;12.10;99.90;;;;;;4954280;29;20047;-85
2022/05/21 05:39:55;;;;;;;7.20;1.80;;;12.60;99.90;;;;;;4945711;28;20587;-82
2022/05/21 05:42:23;;;;;;;7.40;1.80;;;13.10;96.60;;;;;;4935775;29;20098;-83
2022/05/21 05:44:50;;;;;;;2.15;1.52;;;13.60;94.70;;;;;;4934972;29;20044;-83
2022/05/21 05:47:17;;;;;;;4.60;1.70;;;14.00;91.00;;;;;;4936875;29;20418;-82
2022/05/21 05:49:45;;;;;;;4.47;2.00;;;14.50;89.80;;;;;;4935694;29;20059;-80
2022/05/21 05:52:12;;;;;;;3.90;1.95;;;15.00;85.50;;;;;;4944829;29;20533;-79
2022/05/21 05:54:41;;;;;;;4.85;2.08;;;15.50;81.70;;;;;;4950708;28;20051;-79
2022/05/21 05:57:11;;;;;;;2.97;1.73;;;16.00;75.20;;;;;;4947185;28;20420;-83
2022/05/21 05:59:50;;;;;;;2.60;2.03;;;16.30;72.10;;;;;;4933774;29;20083;-83
2022/05/21 06:05:04;;;;;;;4.32;2.33;;;16.90;70.40;;;;;;4952344;28;20059;-82
2022/05/21 06:07:33;;;;;;;6.20;1.80;;;17.30;67.70;;;;;;4969771;28;20106;-84
2022/05/21 06:10:04;;;;;;;3.63;1.90;;;17.80;65.40;;;;;;4954876;28;20051;-84
2022/05/21 06:12:32;;;;;;;8.87;1.93;;;17.90;64.30;;;;;;4954479;28;20047;-82
2022/05/21 06:15:00;;;;;;;2.63;1.55;;;18.20;62.90;;;;;;4954648;28;20102;-82
2022/05/21 06:17:28;;;;;;;2.28;1.60;;;18.40;61.70;;;;;;4954633;28;20567;-83
2022/05/21 06:19:55;;;;;;;5.72;1.45;;;18.60;61.60;;;;;;4960571;28;20083;-84
2022/05/21 06:22:22;;;;;;;3.88;1.60;;;18.90;59.80;;;;;;4958893;28;20063;-82
2022/05/21 06:24:51;;;;;;;3.72;1.52;;;19.00;58.60;;;;;;4956435;28;20542;-82
2022/05/21 06:27:22;;;;;;;4.45;1.90;;;19.20;58.20;;;;;;4954403;28;20458;-81
2022/05/21 06:29:49;;;;;;;2.15;1.67;;;19.30;57.00;;;;;;4937923;29;20075;-77
2022/05/21 06:32:17;;;;;;;4.07;3.08;;;19.40;57.00;;;;;;4939278;29;20047;-81
2022/05/21 06:34:44;;;;;;;8.07;2.53;;;19.80;57.30;;;;;;4949323;28;20416;-81
2022/05/21 06:37:13;;;;;;;6.85;3.05;;;20.00;55.40;;;;;;4933413;29;20425;-85
2022/05/21 06:39:43;;;;;;;9.30;6.00;;;20.10;57.20;;;;;;4940891;28;20067;-86
2022/05/21 06:42:13;;;;;;;3.47;1.80;;;20.20;55.50;;;;;;4956727;28;20063;-86
2022/05/21 06:44:42;;;;;;;3.65;1.95;;;20.40;55.00;;;;;;4942303;28;20082;-85
2022/05/21 06:47:11;;;;;;;5.13;1.73;;;20.50;54.30;;;;;;4947657;29;20397;-86
2022/05/21 06:49:41;;;;;;;2.88;1.35;;;20.80;54.30;;;;;;4949553;28;20047;-86
2022/05/21 06:52:08;;;;;;;2.65;2.00;;;21.20;52.40;;;;;;4928483;29;20048;-85
2022/05/21 06:54:36;;;;;;;3.17;2.00;;;21.50;52.50;;;;;;4920949;29;20048;-82
2022/05/21 06:57:08;;;;;;;2.72;1.95;;;21.60;52.50;;;;;;4921469;29;20056;-82
2022/05/21 06:59:37;;;;;;;7.03;2.58;;;21.70;52.90;;;;;;4925755;29;20047;-83
2022/05/21 07:02:06;;;;;;;2.90;1.50;;;21.90;52.70;;;;;;4929705;29;20059;-83
2022/05/21 07:07:34;;;;;;;2.85;1.90;;;22.20;51.00;;;;;;4919119;29;20052;-79
2022/05/21 07:10:08;;;;;;;4.18;1.50;;;22.50;50.20;;;;;;4927095;29;20532;-79
2022/05/21 07:12:37;;;;;;;4.35;1.58;;;22.70;49.50;;;;;;4942235;29;20052;-79
2022/05/21 07:15:06;;;;;;;2.78;1.90;;;22.80;49.20;;;;;;4918491;29;20079;-80
2022/05/21 07:17:39;;;;;;;5.32;1.50;;;23.00;48.60;;;;;;4918379;29;20048;-82
2022/05/21 07:20:10;;;;;;;3.75;1.30;;;23.30;48.60;;;;;;4921023;29;20056;-80
2022/05/21 07:22:43;;;;;;;2.70;1.48;;;23.50;48.30;;;;;;4930781;29;20072;-80
2022/05/21 07:25:12;;;;;;;6.13;1.70;;;23.70;47.70;;;;;;4928466;29;20108;-80
2022/05/21 07:27:40;;;;;;;3.47;1.55;;;23.80;48.20;;;;;;4918468;29;20044;-81
2022/05/21 07:30:10;;;;;;;2.80;1.70;;;23.70;47.50;;;;;;4917064;29;20048;-78
2022/05/21 07:32:39;;;;;;;3.50;1.40;;;23.80;48.80;;;;;;4916418;29;20079;-79
2022/05/21 07:35:11;;;;;;;3.95;1.63;;;23.90;48.50;;;;;;4933735;29;20048;-83
2022/05/21 07:37:38;;;;;;;3.78;1.98;;;24.10;48.80;;;;;;4937366;29;20335;-77
2022/05/21 07:40:08;;;;;;;4.50;1.70;;;24.20;47.90;;;;;;4929458;29;20497;-77
2022/05/21 07:42:37;;;;;;;4.30;1.58;;;24.30;47.60;;;;;;4928098;29;20059;-80
2022/05/21 07:45:05;;;;;;;3.00;1.58;;;24.30;47.40;;;;;;4934884;29;20091;-82
2022/05/21 07:47:32;;;;;;;4.65;1.77;;;24.50;47.10;;;;;;4939728;29;20388;-82
2022/05/21 07:50:05;;;;;;;4.13;1.90;;;24.60;45.90;;;;;;4938037;29;20052;-82
2022/05/21 07:52:39;;;;;;;1.73;1.10;;;24.90;46.30;;;;;;4958843;29;20103;-84
2022/05/21 07:55:09;;;;;;;5.30;1.30;;;24.90;45.50;;;;;;4935732;29;20044;-80
2022/05/21 07:57:40;;;;;;;2.85;1.13;;;25.00;45.30;;;;;;4922553;29;20521;-84
2022/05/21 08:00:17;;;;;;;2.37;1.27;;;25.20;44.30;;;;;;4922189;29;20505;-81
2022/05/21 08:02:45;;;;;;;1.90;1.40;;;25.50;43.80;;;;;;4918592;29;20059;-86
2022/05/21 08:05:13;;;;;;;3.78;1.50;;;25.70;42.80;;;;;;4915996;29;20387;-81
2022/05/21 08:07:44;;;;;;;4.45;1.27;;;25.90;42.20;;;;;;4937325;29;20513;-81
2022/05/21 08:10:12;;;;;;;2.00;1.40;;;26.10;41.90;;;;;;4933006;29;20055;-83
2022/05/21 08:12:39;;;;;;;3.60;1.20;;;26.30;41.80;;;;;;4946778;29;20415;-79
2022/05/21 08:15:08;;;;;;;4.78;1.17;;;26.40;40.80;;;;;;4938984;29;20047;-77
2022/05/21 08:17:35;;;;;;;3.13;1.10;;;26.50;39.80;;;;;;4914735;29;20483;-78
2022/05/21 08:20:02;;;;;;;1.90;1.10;;;26.50;40.50;;;;;;4928171;28;20611;-79
2022/05/21 08:28:00;;;;;;;2.33;1.38;;;26.70;39.40;;;;;;4934827;29;20059;-80
2022/05/21 08:30:27;;;;;;;6.95;1.20;;;26.90;40.30;;;;;;4933233;29;20044;-77
2022/05/21 08:33:00;;;;;;;1.02;0.93;;;27.10;39.70;;;;;;4933113;29;20089;-78
2022/05/21 08:35:27;;;;;;;3.70;1.00;;;27.40;39.20;;;;;;4947867;28;20106;-78
2022/05/21 08:37:58;;;;;;;2.55;1.00;;;27.60;38.40;;;;;;4934034;29;20141;-77
2022/05/21 08:40:29;;;;;;;1.35;1.00;;;27.60;39.10;;;;;;4935966;28;20170;-78
2022/05/21 08:42:59;;;;;;;3.03;1.15;;;27.70;37.90;;;;;;4932437;29;20188;-79
2022/05/21 08:45:33;;;;;;;3.22;0.93;;;27.70;37.50;;;;;;4931627;29;20051;-78
2022/05/21 08:48:03;;;;;;;1.70;1.10;;;28.00;38.60;;;;;;4934171;29;20586;-79
2022/05/21 08:50:34;;;;;;;1.75;1.13;;;28.30;37.90;;;;;;4932204;29;20134;-78
2022/05/21 08:53:06;;;;;;;1.42;1.00;;;28.00;36.40;;;;;;4933479;29;20051;-78
2022/05/21 08:55:35;;;;;;;1.52;0.90;;;28.00;36.00;;;;;;4933051;29;20048;-78
2022/05/21 08:58:05;;;;;;;5.50;2.05;;;28.10;37.20;;;;;;4933553;29;20043;-79
2022/05/21 09:00:37;;;;;;;3.78;1.10;;;28.30;37.00;;;;;;4931443;29;20058;-78
2022/05/21 09:03:08;;;;;;;0.93;0.90;;;28.50;36.30;;;;;;4933926;29;20117;-83
2022/05/21 09:05:58;;;;;;;1.50;0.90;;;28.80;36.00;;;;;;4931197;29;20059;-84
2022/05/21 09:08:32;;;;;;;1.75;0.90;;;28.70;35.90;;;;;;4931269;29;20073;-86
2022/05/21 09:11:04;;;;;;;6.53;1.38;;;28.70;35.80;;;;;;4934829;29;20448;-86
2022/05/21 09:13:57;;;;;;;3.80;0.93;;;28.90;36.80;;;;;;4939054;29;20052;-87
2022/05/21 09:19:10;;;;;;;2.22;1.10;;;29.20;35.10;;;;;;4930241;29;20052;-79
2022/05/21 09:21:42;;;;;;;1.67;1.10;;;29.20;35.90;;;;;;4929871;29;20509;-79
2022/05/21 09:24:35;;;;;;;3.03;0.95;;;28.90;36.10;;;;;;4932445;29;20050;-84
2022/05/21 09:27:04;;;;;;;3.85;1.00;;;29.20;35.10;;;;;;4925916;29;20071;-83
2022/05/21 09:29:35;;;;;;;3.08;0.82;;;29.10;34.20;;;;;;4932285;29;20040;-83
2022/05/21 09:32:19;;;;;;;1.33;1.20;;;29.30;35.70;;;;;;4933215;29;20144;-84
2022/05/21 09:34:59;;;;;;;2.33;1.20;;;29.60;34.00;;;;;;4943780;29;20172;-83
2022/05/21 09:37:29;;;;;;;3.55;1.42;;;29.70;34.90;;;;;;4916273;29;20054;-87
2022/05/21 09:39:59;;;;;;;6.33;1.60;;;29.90;35.00;;;;;;4944917;28;20067;-83
2022/05/21 09:45:26;;;;;;;3.85;1.10;;;29.90;34.60;;;;;;4932968;29;20055;-79
2022/05/21 09:48:14;;;;;;;5.57;1.10;;;30.10;36.20;;;;;;4933320;29;20138;-79
2022/05/21 09:50:48;;;;;;;3.80;0.90;;;29.90;35.50;;;;;;4931353;29;20048;-79
2022/05/21 09:53:31;;;;;;;3.25;1.20;;;29.80;34.90;;;;;;4921185;29;20087;-87
2022/05/21 09:56:06;;;;;;;3.00;1.00;;;30.00;34.30;;;;;;4930597;29;20516;-84
2022/05/21 09:58:37;;;;;;;5.70;1.00;;;30.00;35.10;;;;;;4936172;29;20066;-81
2022/05/21 10:01:06;;;;;;;2.17;1.38;;;29.90;34.70;;;;;;4970026;23;20036;-86
2022/05/21 10:03:43;;;;;;;4.95;1.27;;;30.00;35.70;;;;;;4949234;29;20219;-83
2022/05/21 10:06:27;;;;;;;3.83;1.17;;;30.00;34.40;;;;;;4925067;29;20048;-84
2022/05/21 10:11:55;;;;;;;2.65;1.50;;;30.30;34.50;;;;;;4927658;29;20049;-85
2022/05/21 10:14:26;;;;;;;2.58;1.02;;;30.50;35.60;;;;;;4922080;29;20090;-81
2022/05/21 10:16:56;;;;;;;3.90;1.08;;;30.40;33.30;;;;;;4927888;28;20052;-80
2022/05/21 10:19:30;;;;;;;3.38;1.13;;;30.30;33.80;;;;;;4926870;29;20066;-87
2022/05/21 10:22:20;;;;;;;1.20;1.08;;;30.20;33.10;;;;;;4931785;28;20028;-83
2022/05/21 10:28:15;;;;;;;3.97;1.10;;;30.40;33.90;;;;;;4908648;29;20056;-84
2022/05/21 10:31:04;;;;;;;1.92;1.25;;;30.40;33.10;;;;;;4915449;29;20402;-85
2022/05/21 10:33:46;;;;;;;1.95;1.20;;;30.40;33.20;;;;;;4901925;29;20076;-78
2022/05/21 10:36:27;;;;;;;1.08;1.02;;;30.50;32.60;;;;;;4908254;29;20059;-86
2022/05/21 10:39:24;;;;;;;2.23;1.47;;;30.40;32.80;;;;;;4903941;29;20060;-88
2022/05/21 10:42:19;;;;;;;3.42;1.27;;;30.40;33.10;;;;;;4887895;29;20049;-81
2022/05/21 10:45:02;;;;;;;2.58;1.25;;;30.40;33.70;;;;;;4910400;29;20087;-85
2022/05/21 10:47:48;;;;;;;4.38;1.27;;;30.60;33.90;;;;;;4910703;29;20045;-86
2022/05/21 10:50:25;;;;;;;3.20;1.50;;;30.70;33.40;;;;;;4914121;29;20044;-87
2022/05/21 10:53:06;;;;;;;4.50;1.20;;;30.90;33.60;;;;;;4908543;29;20085;-83
2022/05/21 10:55:41;;;;;;;3.80;1.30;;;31.00;34.60;;;;;;4909752;29;20044;-88
2022/05/21 10:58:25;;;;;;;3.15;1.40;;;31.00;32.30;;;;;;4906004;29;20304;-86
2022/05/21 11:01:03;;;;;;;1.98;1.50;;;30.80;31.70;;;;;;4906533;29;20519;-87
2022/05/21 11:04:02;;;;;;;2.53;1.55;;;30.90;33.60;;;;;;4901570;29;20100;-85
2022/05/21 11:07:01;;;;;;;4.72;1.30;;;31.20;32.70;;;;;;4908386;29;20116;-81
2022/05/21 11:09:34;;;;;;;2.83;1.50;;;31.30;32.50;;;;;;4902912;29;20415;-79
2022/05/21 11:12:05;;;;;;;5.72;1.60;;;31.30;32.20;;;;;;4907111;29;20581;-79
2022/05/21 11:14:44;;;;;;;3.05;1.35;;;31.20;32.30;;;;;;4907923;29;20060;-83
2022/05/21 11:17:30;;;;;;;15.65;2.80;;;31.30;33.10;;;;;;4905472;29;20091;-79
2022/05/21 11:20:12;;;;;;;2.42;1.17;;;31.40;32.60;;;;;;4908131;29;20084;-85
2022/05/21 11:22:52;;;;;;;1.70;1.33;;;31.60;31.40;;;;;;4912688;29;20049;-82
2022/05/21 11:25:28;;;;;;;8.38;1.55;;;31.40;31.50;;;;;;4905183;29;20052;-78
2022/05/21 11:28:04;;;;;;;6.13;1.45;;;31.50;32.20;;;;;;4907505;29;20048;-78
2022/05/21 11:30:31;;;;;;;4.82;1.80;;;31.50;32.50;;;;;;4905004;29;20052;-78
2022/05/21 11:38:53;;;;;;;4.70;1.60;;;31.70;30.90;;;;;;4908115;29;20196;-84
2022/05/21 11:41:29;;;;;;;5.28;1.77;;;31.80;31.10;;;;;;4904583;29;20044;-79
2022/05/21 11:46:47;;;;;;;4.70;1.50;;;32.00;30.20;;;;;;4888191;29;20048;-79
2022/05/21 11:49:40;;;;;;;10.10;2.13;;;32.10;30.80;;;;;;4891031;29;20044;-78
2022/05/21 11:52:45;;;;;;;2.65;1.30;;;32.20;30.10;;;;;;4906601;29;20060;-78
2022/05/21 11:55:20;;;;;;;4.97;1.60;;;32.00;30.70;;;;;;4903752;29;20075;-78
2022/05/21 11:57:50;;;;;;;3.92;1.58;;;32.10;30.70;;;;;;4903559;29;20056;-84
2022/05/21 12:00:44;;;;;;;1.75;1.20;;;32.10;30.20;;;;;;4905005;29;20044;-82
2022/05/21 12:03:16;;;;;;;14.13;1.70;;;32.00;30.00;;;;;;4905364;29;20517;-82
2022/05/21 12:06:09;;;;;;;4.60;1.45;;;32.10;29.90;;;;;;4904877;29;20108;-82
2022/05/21 12:08:48;;;;;;;5.13;1.37;;;32.00;30.40;;;;;;4910471;29;20059;-80
2022/05/21 12:11:41;;;;;;;4.15;1.20;;;32.10;30.50;;;;;;4909006;29;20072;-81
2022/05/21 12:14:19;;;;;;;5.47;1.48;;;32.30;30.10;;;;;;4901527;29;20052;-78
2022/05/21 12:16:53;;;;;;;1.42;1.20;;;32.50;29.60;;;;;;4907893;29;20054;-83
2022/05/21 12:20:07;;;;;;;5.35;1.33;;;32.60;29.50;;;;;;4906628;29;20532;-83
2022/05/21 12:22:47;;;;;;;5.82;1.60;;;32.70;30.10;;;;;;4916264;29;20060;-83
2022/05/21 12:25:57;;;;;;;2.85;1.63;;;32.60;29.80;;;;;;4908018;29;20136;-83
2022/05/21 12:28:36;;;;;;;4.50;1.50;;;32.50;30.20;;;;;;4909419;29;20063;-83
2022/05/21 12:31:12;;;;;;;2.03;1.25;;;32.50;30.00;;;;;;4912631;29;20044;-82
2022/05/21 12:33:50;;;;;;;4.60;1.48;;;32.50;30.00;;;;;;4910072;29;20044;-88
2022/05/21 12:36:45;;;;;;;5.05;1.60;;;32.40;30.30;;;;;;4904893;29;20108;-83
2022/05/21 12:39:18;;;;;;;3.47;1.60;;;32.70;30.20;;;;;;4909715;29;20063;-83
2022/05/21 12:41:49;;;;;;;4.47;2.10;;;32.70;29.90;;;;;;4906776;29;20111;-86
2022/05/21 12:44:43;;;;;;;5.77;1.60;;;32.70;30.00;;;;;;4906135;29;20517;-83
2022/05/21 12:47:13;;;;;;;5.43;2.10;;;32.70;30.00;;;;;;4909926;29;20052;-84
2022/05/21 12:49:51;;;;;;;4.40;1.80;;;32.60;30.00;;;;;;4906300;29;20104;-85
2022/05/21 12:52:24;;;;;;;5.55;1.70;;;32.70;29.80;;;;;;4902777;29;20052;-77
2022/05/21 12:55:22;;;;;;;3.63;2.08;;;32.70;29.70;;;;;;4902430;29;20588;-83
2022/05/21 12:57:51;;;;;;;3.88;1.60;;;32.60;29.60;;;;;;4906790;29;20505;-83
2022/05/21 13:00:21;;;;;;;2.28;1.63;;;32.50;29.70;;;;;;4907370;29;20066;-80
2022/05/21 13:02:52;;;;;;;7.60;1.65;;;32.50;29.30;;;;;;4902123;29;20421;-80
2022/05/21 13:05:22;;;;;;;3.40;1.80;;;32.40;29.40;;;;;;4903843;29;20508;-82
2022/05/21 13:07:52;;;;;;;3.40;1.33;;;32.20;29.70;;;;;;4905590;29;20476;-83
2022/05/21 13:10:24;;;;;;;2.17;1.63;;;32.20;30.30;;;;;;4904689;29;20513;-85
2022/05/21 13:12:54;;;;;;;4.20;1.53;;;32.20;30.30;;;;;;4904058;29;20053;-76
2022/05/21 13:15:27;;;;;;;6.38;1.73;;;32.30;30.70;;;;;;4903284;29;20308;-76
2022/05/21 13:18:07;;;;;;;7.07;1.60;;;32.20;29.50;;;;;;4902676;29;20517;-75
2022/05/21 13:20:41;;;;;;;2.30;1.70;;;31.90;30.50;;;;;;4904036;29;20059;-74
2022/05/21 13:23:19;;;;;;;;;;;32.00;29.70;;;;;;4902628;29;20100;-76
2022/05/21 13:25:53;;;;;;;2.97;2.10;;;32.00;29.80;;;;;;4900271;29;19927;-83
2022/05/21 13:28:23;;;;;;;6.80;2.30;;;32.10;29.30;;;;;;4905010;29;20052;-82
2022/05/21 13:30:52;;;;;;;2.60;1.63;;;32.00;29.10;;;;;;4905902;29;20080;-85
2022/05/21 13:33:32;;;;;;;4.75;2.25;;;31.70;29.60;;;;;;4906511;29;20048;-84
2022/05/21 13:36:01;;;;;;;5.28;2.35;;;31.80;29.80;;;;;;4903857;29;20048;-81
2022/05/21 13:38:33;;;;;;;6.70;2.28;;;31.80;29.90;;;;;;4903560;29;20040;-81
2022/05/21 13:41:05;;;;;;;1.90;1.77;;;31.80;29.70;;;;;;4901268;29;20075;-77
2022/05/21 13:43:40;;;;;;;4.40;1.63;;;31.70;30.00;;;;;;4902862;29;20048;-77
2022/05/21 13:46:09;;;;;;;2.95;2.33;;;31.60;29.90;;;;;;4903512;29;20108;-77
2022/05/21 13:48:42;;;;;;;2.75;2.00;;;31.40;30.00;;;;;;4900983;29;20063;-77
2022/05/21 13:51:13;;;;;;;4.18;1.80;;;31.30;30.20;;;;;;4899493;29;20099;-76
2022/05/21 13:53:41;;;;;;;3.72;1.50;;;31.10;30.60;;;;;;4902504;29;20057;-76
2022/05/21 13:56:31;;;;;;;3.28;1.85;;;30.80;30.30;;;;;;4902978;29;20048;-76
2022/05/21 13:59:21;;;;;;;3.58;2.25;;;30.60;30.80;;;;;;4900036;29;20046;-77